sensor_id;sensor_type;location;lat;lon;timestamp;P1;durP1;ratioP1;P2;durP2;ratioP2
26271;SDS011;13997;48.902;12.472;2023-02-17T00:01:13;91.68;;;37.20;;
26271;SDS011;13997;48.902;12.472;2023-02-17T00:03:42;99.82;;;37.33;;
26271;SDS011;13997;48.902;12.472;2023-02-17T00:06:12;92.18;;;37.72;;
26271;SDS011;13997;48.902;12.472;2023-02-17T00:08:38;96.30;;;39.78;;
26271;SDS011;13997;48.902;12.472;2023-02-17T00:11:04;97.90;;;37.53;;
26271;SDS011;13997;48.902;12.472;2023-02-17T00:13:30;95.47;;;37.42;;
26271;SDS011;13997;48.902;12.472;2023-02-17T00:15:56;90.90;;;37.50;;
26271;SDS011;13997;48.902;12.472;2023-02-17T00:18:22;93.63;;;37.80;;
26271;SDS011;13997;48.902;12.472;2023-02-17T00:20:48;91.07;;;37.03;;
26271;SDS011;13997;48.902;12.472;2023-02-17T00:23:14;83.88;;;35.75;;
26271;SDS011;13997;48.902;12.472;2023-02-17T00:25:39;87.95;;;37.03;;
26271;SDS011;13997;48.902;12.472;2023-02-17T00:28:05;88.05;;;37.97;;
26271;SDS011;13997;48.902;12.472;2023-02-17T00:30:30;87.68;;;37.17;;
26271;SDS011;13997;48.902;12.472;2023-02-17T00:32:56;91.82;;;36.42;;
26271;SDS011;13997;48.902;12.472;2023-02-17T00:35:22;88.65;;;37.85;;
26271;SDS011;13997;48.902;12.472;2023-02-17T00:37:47;90.43;;;38.00;;
26271;SDS011;13997;48.902;12.472;2023-02-17T00:40:13;85.25;;;36.75;;
26271;SDS011;13997;48.902;12.472;2023-02-17T00:42:39;92.22;;;38.58;;
26271;SDS011;13997;48.902;12.472;2023-02-17T00:45:05;88.38;;;37.50;;
26271;SDS011;13997;48.902;12.472;2023-02-17T00:47:31;96.70;;;39.50;;
26271;SDS011;13997;48.902;12.472;2023-02-17T00:49:56;97.10;;;38.15;;
26271;SDS011;13997;48.902;12.472;2023-02-17T00:52:22;89.03;;;37.53;;
26271;SDS011;13997;48.902;12.472;2023-02-17T00:54:48;95.28;;;37.55;;
26271;SDS011;13997;48.902;12.472;2023-02-17T00:57:13;90.68;;;38.03;;
26271;SDS011;13997;48.902;12.472;2023-02-17T00:59:39;94.57;;;38.17;;
26271;SDS011;13997;48.902;12.472;2023-02-17T01:02:04;89.43;;;37.90;;
26271;SDS011;13997;48.902;12.472;2023-02-17T01:04:30;86.93;;;38.42;;
26271;SDS011;13997;48.902;12.472;2023-02-17T01:06:55;86.13;;;35.78;;
26271;SDS011;13997;48.902;12.472;2023-02-17T01:09:21;82.60;;;34.67;;
26271;SDS011;13997;48.902;12.472;2023-02-17T01:11:47;82.65;;;35.80;;
26271;SDS011;13997;48.902;12.472;2023-02-17T01:14:12;98.85;;;39.17;;
26271;SDS011;13997;48.902;12.472;2023-02-17T01:16:40;97.63;;;39.10;;
26271;SDS011;13997;48.902;12.472;2023-02-17T01:19:11;85.68;;;37.40;;
26271;SDS011;13997;48.902;12.472;2023-02-17T01:21:38;86.75;;;38.00;;
26271;SDS011;13997;48.902;12.472;2023-02-17T01:24:04;90.30;;;37.25;;
26271;SDS011;13997;48.902;12.472;2023-02-17T01:26:32;89.68;;;37.88;;
26271;SDS011;13997;48.902;12.472;2023-02-17T01:28:59;92.88;;;36.95;;
26271;SDS011;13997;48.902;12.472;2023-02-17T01:31:25;90.88;;;38.47;;
26271;SDS011;13997;48.902;12.472;2023-02-17T01:33:51;94.70;;;39.55;;
26271;SDS011;13997;48.902;12.472;2023-02-17T01:36:21;94.72;;;38.65;;
26271;SDS011;13997;48.902;12.472;2023-02-17T01:38:47;97.82;;;38.75;;
26271;SDS011;13997;48.902;12.472;2023-02-17T01:41:13;100.22;;;40.53;;
26271;SDS011;13997;48.902;12.472;2023-02-17T01:43:40;107.93;;;41.97;;
26271;SDS011;13997;48.902;12.472;2023-02-17T01:46:06;96.90;;;41.10;;
26271;SDS011;13997;48.902;12.472;2023-02-17T01:48:37;105.05;;;41.83;;
26271;SDS011;13997;48.902;12.472;2023-02-17T01:51:13;106.10;;;42.63;;
26271;SDS011;13997;48.902;12.472;2023-02-17T01:53:47;108.25;;;41.28;;
26271;SDS011;13997;48.902;12.472;2023-02-17T01:56:18;111.93;;;42.70;;
26271;SDS011;13997;48.902;12.472;2023-02-17T01:58:46;106.18;;;41.80;;
26271;SDS011;13997;48.902;12.472;2023-02-17T02:01:18;102.32;;;41.10;;
26271;SDS011;13997;48.902;12.472;2023-02-17T02:03:44;99.28;;;40.95;;
26271;SDS011;13997;48.902;12.472;2023-02-17T02:06:12;100.85;;;40.35;;
26271;SDS011;13997;48.902;12.472;2023-02-17T02:08:44;103.57;;;41.65;;
26271;SDS011;13997;48.902;12.472;2023-02-17T02:11:18;100.07;;;40.97;;
26271;SDS011;13997;48.902;12.472;2023-02-17T02:13:44;100.95;;;40.88;;
26271;SDS011;13997;48.902;12.472;2023-02-17T02:16:12;103.30;;;40.67;;
26271;SDS011;13997;48.902;12.472;2023-02-17T02:18:48;101.80;;;41.30;;
26271;SDS011;13997;48.902;12.472;2023-02-17T02:21:37;99.20;;;40.35;;
26271;SDS011;13997;48.902;12.472;2023-02-17T02:24:08;102.30;;;39.55;;
26271;SDS011;13997;48.902;12.472;2023-02-17T02:40:40;100.93;;;38.88;;
26271;SDS011;13997;48.902;12.472;2023-02-17T02:43:10;100.05;;;40.22;;
26271;SDS011;13997;48.902;12.472;2023-02-17T02:45:36;96.38;;;39.70;;
26271;SDS011;13997;48.902;12.472;2023-02-17T02:48:02;99.43;;;39.47;;
26271;SDS011;13997;48.902;12.472;2023-02-17T02:50:34;106.82;;;41.25;;
26271;SDS011;13997;48.902;12.472;2023-02-17T02:59:17;104.70;;;41.25;;
26271;SDS011;13997;48.902;12.472;2023-02-17T03:04:39;102.30;;;40.08;;
26271;SDS011;13997;48.902;12.472;2023-02-17T03:09:52;116.00;;;44.45;;
26271;SDS011;13997;48.902;12.472;2023-02-17T03:12:21;111.85;;;43.15;;
26271;SDS011;13997;48.902;12.472;2023-02-17T03:14:48;116.32;;;42.92;;
26271;SDS011;13997;48.902;12.472;2023-02-17T03:17:16;115.95;;;43.13;;
26271;SDS011;13997;48.902;12.472;2023-02-17T03:19:41;107.10;;;42.72;;
26271;SDS011;13997;48.902;12.472;2023-02-17T03:22:22;110.78;;;42.90;;
26271;SDS011;13997;48.902;12.472;2023-02-17T03:24:52;108.30;;;42.95;;
26271;SDS011;13997;48.902;12.472;2023-02-17T03:27:17;114.47;;;42.65;;
26271;SDS011;13997;48.902;12.472;2023-02-17T03:29:43;102.18;;;42.83;;
26271;SDS011;13997;48.902;12.472;2023-02-17T03:32:09;107.88;;;42.20;;
26271;SDS011;13997;48.902;12.472;2023-02-17T03:34:34;108.20;;;41.70;;
26271;SDS011;13997;48.902;12.472;2023-02-17T03:37:00;105.93;;;42.30;;
26271;SDS011;13997;48.902;12.472;2023-02-17T03:39:26;116.60;;;43.08;;
26271;SDS011;13997;48.902;12.472;2023-02-17T03:41:51;99.03;;;42.30;;
26271;SDS011;13997;48.902;12.472;2023-02-17T03:44:17;112.93;;;45.05;;
26271;SDS011;13997;48.902;12.472;2023-02-17T03:46:43;106.18;;;42.10;;
26271;SDS011;13997;48.902;12.472;2023-02-17T03:49:09;102.15;;;43.42;;
26271;SDS011;13997;48.902;12.472;2023-02-17T03:51:35;102.13;;;40.88;;
26271;SDS011;13997;48.902;12.472;2023-02-17T03:54:00;103.15;;;42.63;;
26271;SDS011;13997;48.902;12.472;2023-02-17T03:56:26;103.07;;;43.38;;
26271;SDS011;13997;48.902;12.472;2023-02-17T03:58:52;98.38;;;41.13;;
26271;SDS011;13997;48.902;12.472;2023-02-17T04:01:17;100.85;;;41.70;;
26271;SDS011;13997;48.902;12.472;2023-02-17T04:03:43;109.57;;;44.40;;
26271;SDS011;13997;48.902;12.472;2023-02-17T04:06:09;100.20;;;42.75;;
26271;SDS011;13997;48.902;12.472;2023-02-17T04:08:35;108.70;;;45.08;;
26271;SDS011;13997;48.902;12.472;2023-02-17T04:11:01;109.22;;;42.15;;
26271;SDS011;13997;48.902;12.472;2023-02-17T04:13:28;98.82;;;41.10;;
26271;SDS011;13997;48.902;12.472;2023-02-17T04:15:54;98.53;;;40.90;;
26271;SDS011;13997;48.902;12.472;2023-02-17T04:18:20;107.70;;;43.40;;
26271;SDS011;13997;48.902;12.472;2023-02-17T04:20:49;99.40;;;41.60;;
26271;SDS011;13997;48.902;12.472;2023-02-17T04:23:16;98.75;;;43.00;;
26271;SDS011;13997;48.902;12.472;2023-02-17T04:25:42;104.03;;;42.85;;
26271;SDS011;13997;48.902;12.472;2023-02-17T04:28:08;100.15;;;42.30;;
26271;SDS011;13997;48.902;12.472;2023-02-17T04:30:33;100.95;;;42.85;;
26271;SDS011;13997;48.902;12.472;2023-02-17T04:32:59;90.18;;;41.55;;
26271;SDS011;13997;48.902;12.472;2023-02-17T04:35:25;104.63;;;42.03;;
26271;SDS011;13997;48.902;12.472;2023-02-17T04:37:51;101.35;;;42.78;;
26271;SDS011;13997;48.902;12.472;2023-02-17T04:40:18;98.88;;;42.33;;
26271;SDS011;13997;48.902;12.472;2023-02-17T04:42:44;96.97;;;39.40;;
26271;SDS011;13997;48.902;12.472;2023-02-17T04:45:10;93.93;;;40.53;;
26271;SDS011;13997;48.902;12.472;2023-02-17T04:47:36;95.22;;;41.67;;
26271;SDS011;13997;48.902;12.472;2023-02-17T04:50:02;99.45;;;42.03;;
26271;SDS011;13997;48.902;12.472;2023-02-17T04:52:28;100.10;;;42.97;;
26271;SDS011;13997;48.902;12.472;2023-02-17T04:54:53;102.43;;;43.60;;
26271;SDS011;13997;48.902;12.472;2023-02-17T04:57:19;101.03;;;42.40;;
26271;SDS011;13997;48.902;12.472;2023-02-17T04:59:45;96.20;;;41.55;;
26271;SDS011;13997;48.902;12.472;2023-02-17T05:02:10;94.18;;;41.40;;
26271;SDS011;13997;48.902;12.472;2023-02-17T05:04:36;94.03;;;42.20;;
26271;SDS011;13997;48.902;12.472;2023-02-17T05:07:01;120.20;;;51.70;;
26271;SDS011;13997;48.902;12.472;2023-02-17T05:09:27;96.65;;;42.20;;
26271;SDS011;13997;48.902;12.472;2023-02-17T05:11:53;92.90;;;44.30;;
26271;SDS011;13997;48.902;12.472;2023-02-17T05:14:18;100.10;;;43.05;;
26271;SDS011;13997;48.902;12.472;2023-02-17T05:16:44;92.55;;;41.95;;
26271;SDS011;13997;48.902;12.472;2023-02-17T05:19:09;96.45;;;40.10;;
26271;SDS011;13997;48.902;12.472;2023-02-17T05:21:35;85.30;;;39.92;;
26271;SDS011;13997;48.902;12.472;2023-02-17T05:24:01;93.25;;;40.50;;
26271;SDS011;13997;48.902;12.472;2023-02-17T05:26:27;92.20;;;40.30;;
26271;SDS011;13997;48.902;12.472;2023-02-17T05:28:52;90.68;;;41.85;;
26271;SDS011;13997;48.902;12.472;2023-02-17T05:31:18;95.18;;;42.97;;
26271;SDS011;13997;48.902;12.472;2023-02-17T05:33:43;93.30;;;41.58;;
26271;SDS011;13997;48.902;12.472;2023-02-17T05:36:09;98.63;;;42.67;;
26271;SDS011;13997;48.902;12.472;2023-02-17T05:38:36;96.70;;;41.47;;
26271;SDS011;13997;48.902;12.472;2023-02-17T05:41:02;101.38;;;43.72;;
26271;SDS011;13997;48.902;12.472;2023-02-17T05:43:28;94.70;;;44.30;;
26271;SDS011;13997;48.902;12.472;2023-02-17T05:45:54;94.05;;;42.38;;
26271;SDS011;13997;48.902;12.472;2023-02-17T05:48:19;102.90;;;45.05;;
26271;SDS011;13997;48.902;12.472;2023-02-17T05:50:45;101.72;;;44.75;;
26271;SDS011;13997;48.902;12.472;2023-02-17T05:53:10;107.53;;;45.67;;
26271;SDS011;13997;48.902;12.472;2023-02-17T05:55:36;99.45;;;44.70;;
26271;SDS011;13997;48.902;12.472;2023-02-17T05:58:01;102.15;;;43.72;;
26271;SDS011;13997;48.902;12.472;2023-02-17T06:00:27;104.95;;;45.22;;
26271;SDS011;13997;48.902;12.472;2023-02-17T06:02:53;99.60;;;45.22;;
26271;SDS011;13997;48.902;12.472;2023-02-17T06:05:18;107.80;;;46.35;;
26271;SDS011;13997;48.902;12.472;2023-02-17T06:07:44;110.82;;;46.88;;
26271;SDS011;13997;48.902;12.472;2023-02-17T06:10:10;109.03;;;48.67;;
26271;SDS011;13997;48.902;12.472;2023-02-17T06:12:35;108.82;;;47.67;;
26271;SDS011;13997;48.902;12.472;2023-02-17T06:15:01;111.05;;;47.42;;
26271;SDS011;13997;48.902;12.472;2023-02-17T06:17:27;108.57;;;48.67;;
26271;SDS011;13997;48.902;12.472;2023-02-17T06:19:52;115.90;;;48.25;;
26271;SDS011;13997;48.902;12.472;2023-02-17T06:22:18;109.75;;;47.63;;
26271;SDS011;13997;48.902;12.472;2023-02-17T06:24:43;106.20;;;47.15;;
26271;SDS011;13997;48.902;12.472;2023-02-17T06:27:09;107.20;;;47.95;;
26271;SDS011;13997;48.902;12.472;2023-02-17T06:29:34;97.43;;;47.17;;
26271;SDS011;13997;48.902;12.472;2023-02-17T06:32:00;108.70;;;46.00;;
26271;SDS011;13997;48.902;12.472;2023-02-17T06:34:26;109.15;;;48.55;;
26271;SDS011;13997;48.902;12.472;2023-02-17T06:36:52;99.15;;;46.50;;
26271;SDS011;13997;48.902;12.472;2023-02-17T06:39:17;96.97;;;44.83;;
26271;SDS011;13997;48.902;12.472;2023-02-17T06:41:43;97.53;;;44.90;;
26271;SDS011;13997;48.902;12.472;2023-02-17T06:44:09;99.60;;;43.80;;
26271;SDS011;13997;48.902;12.472;2023-02-17T06:46:34;102.40;;;46.05;;
26271;SDS011;13997;48.902;12.472;2023-02-17T06:49:00;106.82;;;48.45;;
26271;SDS011;13997;48.902;12.472;2023-02-17T06:51:26;105.10;;;47.15;;
26271;SDS011;13997;48.902;12.472;2023-02-17T06:53:52;104.93;;;45.38;;
26271;SDS011;13997;48.902;12.472;2023-02-17T06:56:17;102.47;;;45.70;;
26271;SDS011;13997;48.902;12.472;2023-02-17T06:58:43;100.25;;;45.60;;
26271;SDS011;13997;48.902;12.472;2023-02-17T07:01:19;98.63;;;46.75;;
26271;SDS011;13997;48.902;12.472;2023-02-17T07:03:47;104.35;;;47.22;;
26271;SDS011;13997;48.902;12.472;2023-02-17T07:06:12;107.97;;;46.55;;
26271;SDS011;13997;48.902;12.472;2023-02-17T07:08:38;99.20;;;43.78;;
26271;SDS011;13997;48.902;12.472;2023-02-17T07:11:08;101.60;;;46.83;;
26271;SDS011;13997;48.902;12.472;2023-02-17T07:13:35;106.78;;;46.42;;
26271;SDS011;13997;48.902;12.472;2023-02-17T07:16:01;98.78;;;45.85;;
26271;SDS011;13997;48.902;12.472;2023-02-17T07:18:28;99.32;;;44.90;;
26271;SDS011;13997;48.902;12.472;2023-02-17T07:20:53;103.65;;;45.47;;
26271;SDS011;13997;48.902;12.472;2023-02-17T07:23:19;93.22;;;45.15;;
26271;SDS011;13997;48.902;12.472;2023-02-17T07:25:44;95.63;;;44.63;;
26271;SDS011;13997;48.902;12.472;2023-02-17T07:28:10;102.28;;;46.30;;
26271;SDS011;13997;48.902;12.472;2023-02-17T07:30:36;99.72;;;46.78;;
26271;SDS011;13997;48.902;12.472;2023-02-17T07:33:03;102.03;;;46.00;;
26271;SDS011;13997;48.902;12.472;2023-02-17T07:35:29;105.25;;;47.28;;
26271;SDS011;13997;48.902;12.472;2023-02-17T07:37:58;106.40;;;48.65;;
26271;SDS011;13997;48.902;12.472;2023-02-17T07:40:24;109.63;;;48.33;;
26271;SDS011;13997;48.902;12.472;2023-02-17T07:42:50;103.97;;;47.28;;
26271;SDS011;13997;48.902;12.472;2023-02-17T07:45:16;102.03;;;47.25;;
26271;SDS011;13997;48.902;12.472;2023-02-17T07:47:42;98.40;;;46.60;;
26271;SDS011;13997;48.902;12.472;2023-02-17T07:50:07;98.78;;;46.50;;
26271;SDS011;13997;48.902;12.472;2023-02-17T07:52:33;103.97;;;48.38;;
26271;SDS011;13997;48.902;12.472;2023-02-17T07:54:59;96.28;;;46.95;;
26271;SDS011;13997;48.902;12.472;2023-02-17T07:57:25;99.80;;;45.67;;
26271;SDS011;13997;48.902;12.472;2023-02-17T07:59:51;104.75;;;46.97;;
26271;SDS011;13997;48.902;12.472;2023-02-17T08:02:16;108.13;;;49.67;;
26271;SDS011;13997;48.902;12.472;2023-02-17T08:04:42;107.68;;;48.45;;
26271;SDS011;13997;48.902;12.472;2023-02-17T08:07:08;100.65;;;48.15;;
26271;SDS011;13997;48.902;12.472;2023-02-17T08:09:34;103.70;;;48.03;;
26271;SDS011;13997;48.902;12.472;2023-02-17T08:12:18;111.72;;;52.45;;
26271;SDS011;13997;48.902;12.472;2023-02-17T08:15:04;127.25;;;58.03;;
26271;SDS011;13997;48.902;12.472;2023-02-17T08:17:31;119.70;;;57.03;;
26271;SDS011;13997;48.902;12.472;2023-02-17T08:19:57;128.23;;;56.90;;
26271;SDS011;13997;48.902;12.472;2023-02-17T08:22:23;111.10;;;52.03;;
26271;SDS011;13997;48.902;12.472;2023-02-17T08:24:49;151.32;;;70.55;;
26271;SDS011;13997;48.902;12.472;2023-02-17T08:27:15;109.68;;;51.30;;
26271;SDS011;13997;48.902;12.472;2023-02-17T08:29:42;106.32;;;50.78;;
26271;SDS011;13997;48.902;12.472;2023-02-17T08:32:08;110.70;;;53.45;;
26271;SDS011;13997;48.902;12.472;2023-02-17T08:34:34;112.97;;;53.47;;
26271;SDS011;13997;48.902;12.472;2023-02-17T08:37:00;102.47;;;51.33;;
26271;SDS011;13997;48.902;12.472;2023-02-17T08:39:26;130.07;;;57.33;;
26271;SDS011;13997;48.902;12.472;2023-02-17T08:41:52;146.45;;;64.18;;
26271;SDS011;13997;48.902;12.472;2023-02-17T08:44:18;103.40;;;50.78;;
26271;SDS011;13997;48.902;12.472;2023-02-17T08:46:46;106.00;;;51.05;;
26271;SDS011;13997;48.902;12.472;2023-02-17T08:49:13;103.80;;;50.58;;
26271;SDS011;13997;48.902;12.472;2023-02-17T08:51:40;140.52;;;68.32;;
26271;SDS011;13997;48.902;12.472;2023-02-17T08:54:06;108.60;;;51.42;;
26271;SDS011;13997;48.902;12.472;2023-02-17T08:56:34;96.85;;;45.17;;
26271;SDS011;13997;48.902;12.472;2023-02-17T08:59:01;81.68;;;42.50;;
26271;SDS011;13997;48.902;12.472;2023-02-17T09:01:28;105.93;;;51.72;;
26271;SDS011;13997;48.902;12.472;2023-02-17T09:03:55;110.40;;;52.67;;
26271;SDS011;13997;48.902;12.472;2023-02-17T09:06:22;124.57;;;60.08;;
26271;SDS011;13997;48.902;12.472;2023-02-17T09:08:48;274.52;;;118.28;;
26271;SDS011;13997;48.902;12.472;2023-02-17T09:11:14;93.07;;;43.90;;
26271;SDS011;13997;48.902;12.472;2023-02-17T09:13:42;84.30;;;43.42;;
26271;SDS011;13997;48.902;12.472;2023-02-17T09:16:08;85.07;;;42.97;;
26271;SDS011;13997;48.902;12.472;2023-02-17T09:18:34;79.75;;;41.10;;
26271;SDS011;13997;48.902;12.472;2023-02-17T09:21:06;78.03;;;39.80;;
26271;SDS011;13997;48.902;12.472;2023-02-17T09:23:33;81.05;;;41.70;;
26271;SDS011;13997;48.902;12.472;2023-02-17T09:26:00;85.47;;;42.50;;
26271;SDS011;13997;48.902;12.472;2023-02-17T09:28:28;89.47;;;39.90;;
26271;SDS011;13997;48.902;12.472;2023-02-17T09:30:54;77.05;;;41.00;;
26271;SDS011;13997;48.902;12.472;2023-02-17T09:33:20;71.05;;;37.17;;
26271;SDS011;13997;48.902;12.472;2023-02-17T09:35:46;70.70;;;36.25;;
26271;SDS011;13997;48.902;12.472;2023-02-17T09:38:13;68.85;;;35.83;;
26271;SDS011;13997;48.902;12.472;2023-02-17T09:40:44;67.70;;;35.05;;
26271;SDS011;13997;48.902;12.472;2023-02-17T09:43:14;73.43;;;37.70;;
26271;SDS011;13997;48.902;12.472;2023-02-17T09:45:48;68.75;;;36.15;;
26271;SDS011;13997;48.902;12.472;2023-02-17T09:48:19;66.07;;;35.90;;
26271;SDS011;13997;48.902;12.472;2023-02-17T09:50:54;68.13;;;36.97;;
26271;SDS011;13997;48.902;12.472;2023-02-17T09:56:05;62.42;;;34.45;;
26271;SDS011;13997;48.902;12.472;2023-02-17T10:01:35;62.13;;;34.75;;
26271;SDS011;13997;48.902;12.472;2023-02-17T10:04:09;56.08;;;33.42;;
26271;SDS011;13997;48.902;12.472;2023-02-17T10:06:48;60.03;;;32.08;;
26271;SDS011;13997;48.902;12.472;2023-02-17T10:09:19;57.47;;;32.80;;
26271;SDS011;13997;48.902;12.472;2023-02-17T10:14:33;57.72;;;32.45;;
26271;SDS011;13997;48.902;12.472;2023-02-17T10:17:05;65.00;;;32.58;;
26271;SDS011;13997;48.902;12.472;2023-02-17T10:19:55;56.92;;;31.35;;
26271;SDS011;13997;48.902;12.472;2023-02-17T10:22:35;45.90;;;27.00;;
26271;SDS011;13997;48.902;12.472;2023-02-17T10:25:03;51.50;;;26.33;;
26271;SDS011;13997;48.902;12.472;2023-02-17T10:27:46;46.58;;;26.73;;
26271;SDS011;13997;48.902;12.472;2023-02-17T10:33:00;40.97;;;25.98;;
26271;SDS011;13997;48.902;12.472;2023-02-17T10:35:50;60.00;;;27.58;;
26271;SDS011;13997;48.902;12.472;2023-02-17T10:38:44;48.75;;;27.88;;
26271;SDS011;13997;48.902;12.472;2023-02-17T10:41:21;44.72;;;25.50;;
26271;SDS011;13997;48.902;12.472;2023-02-17T10:43:51;44.67;;;25.77;;
26271;SDS011;13997;48.902;12.472;2023-02-17T10:46:18;43.05;;;25.38;;
26271;SDS011;13997;48.902;12.472;2023-02-17T10:48:50;45.75;;;24.00;;
26271;SDS011;13997;48.902;12.472;2023-02-17T10:51:19;40.85;;;22.63;;
26271;SDS011;13997;48.902;12.472;2023-02-17T10:54:12;35.70;;;20.83;;
26271;SDS011;13997;48.902;12.472;2023-02-17T10:56:41;31.08;;;19.48;;
26271;SDS011;13997;48.902;12.472;2023-02-17T11:01:41;32.17;;;18.25;;
26271;SDS011;13997;48.902;12.472;2023-02-17T11:04:09;33.00;;;18.98;;
26271;SDS011;13997;48.902;12.472;2023-02-17T11:06:36;31.98;;;19.08;;
26271;SDS011;13997;48.902;12.472;2023-02-17T11:09:04;30.88;;;18.42;;
26271;SDS011;13997;48.902;12.472;2023-02-17T11:11:35;32.72;;;18.58;;
26271;SDS011;13997;48.902;12.472;2023-02-17T11:16:46;36.28;;;18.60;;
26271;SDS011;13997;48.902;12.472;2023-02-17T11:19:27;28.67;;;17.65;;
26271;SDS011;13997;48.902;12.472;2023-02-17T11:21:55;31.17;;;17.27;;
26271;SDS011;13997;48.902;12.472;2023-02-17T11:24:21;27.95;;;17.00;;
26271;SDS011;13997;48.902;12.472;2023-02-17T11:26:58;28.60;;;16.92;;
26271;SDS011;13997;48.902;12.472;2023-02-17T11:29:24;54.20;;;28.92;;
26271;SDS011;13997;48.902;12.472;2023-02-17T11:34:21;37.47;;;20.23;;
26271;SDS011;13997;48.902;12.472;2023-02-17T11:36:56;29.77;;;16.42;;
26271;SDS011;13997;48.902;12.472;2023-02-17T11:39:41;24.92;;;14.93;;
26271;SDS011;13997;48.902;12.472;2023-02-17T11:42:15;27.42;;;15.82;;
26271;SDS011;13997;48.902;12.472;2023-02-17T11:44:45;26.70;;;15.43;;
26271;SDS011;13997;48.902;12.472;2023-02-17T12:00:31;8.52;;;3.67;;
26271;SDS011;13997;48.902;12.472;2023-02-17T12:03:33;8.05;;;3.50;;
26271;SDS011;13997;48.902;12.472;2023-02-17T12:12:13;7.45;;;2.90;;
26271;SDS011;13997;48.902;12.472;2023-02-17T12:15:07;6.75;;;2.92;;
26271;SDS011;13997;48.902;12.472;2023-02-17T12:26:13;9.30;;;3.05;;
26271;SDS011;13997;48.902;12.472;2023-02-17T12:28:48;5.05;;;2.67;;
26271;SDS011;13997;48.902;12.472;2023-02-17T12:39:10;10.80;;;2.97;;
26271;SDS011;13997;48.902;12.472;2023-02-17T12:41:50;7.68;;;3.28;;
26271;SDS011;13997;48.902;12.472;2023-02-17T12:44:29;4.97;;;2.63;;
26271;SDS011;13997;48.902;12.472;2023-02-17T12:47:00;8.05;;;2.75;;
26271;SDS011;13997;48.902;12.472;2023-02-17T12:49:30;4.55;;;2.17;;
26271;SDS011;13997;48.902;12.472;2023-02-17T12:52:17;6.75;;;2.60;;
26271;SDS011;13997;48.902;12.472;2023-02-17T12:54:49;6.53;;;2.42;;
26271;SDS011;13997;48.902;12.472;2023-02-17T12:59:54;5.13;;;2.45;;
26271;SDS011;13997;48.902;12.472;2023-02-17T13:02:23;5.03;;;2.60;;
26271;SDS011;13997;48.902;12.472;2023-02-17T13:04:53;7.80;;;2.95;;
26271;SDS011;13997;48.902;12.472;2023-02-17T13:10:32;5.75;;;3.40;;
26271;SDS011;13997;48.902;12.472;2023-02-17T13:13:01;5.35;;;2.80;;
26271;SDS011;13997;48.902;12.472;2023-02-17T13:15:39;8.95;;;3.03;;
26271;SDS011;13997;48.902;12.472;2023-02-17T13:18:24;8.20;;;2.92;;
26271;SDS011;13997;48.902;12.472;2023-02-17T13:23:41;4.65;;;2.45;;
26271;SDS011;13997;48.902;12.472;2023-02-17T13:26:35;2.83;;;2.13;;
26271;SDS011;13997;48.902;12.472;2023-02-17T13:34:34;6.97;;;3.03;;
26271;SDS011;13997;48.902;12.472;2023-02-17T13:37:15;5.88;;;2.75;;
26271;SDS011;13997;48.902;12.472;2023-02-17T13:39:56;13.70;;;3.30;;
26271;SDS011;13997;48.902;12.472;2023-02-17T13:42:29;4.85;;;2.92;;
26271;SDS011;13997;48.902;12.472;2023-02-17T13:44:58;10.65;;;3.05;;
26271;SDS011;13997;48.902;12.472;2023-02-17T13:47:33;6.55;;;3.28;;
26271;SDS011;13997;48.902;12.472;2023-02-17T13:50:00;9.57;;;3.60;;
26271;SDS011;13997;48.902;12.472;2023-02-17T13:52:27;4.68;;;2.83;;
26271;SDS011;13997;48.902;12.472;2023-02-17T13:57:25;5.38;;;2.67;;
26271;SDS011;13997;48.902;12.472;2023-02-17T14:00:03;7.65;;;3.15;;
26271;SDS011;13997;48.902;12.472;2023-02-17T14:03:14;6.15;;;2.65;;
26271;SDS011;13997;48.902;12.472;2023-02-17T14:05:47;4.65;;;2.60;;
26271;SDS011;13997;48.902;12.472;2023-02-17T14:10:47;8.35;;;3.38;;
26271;SDS011;13997;48.902;12.472;2023-02-17T14:13:13;7.03;;;3.38;;
26271;SDS011;13997;48.902;12.472;2023-02-17T14:15:49;8.13;;;3.63;;
26271;SDS011;13997;48.902;12.472;2023-02-17T14:18:27;7.32;;;4.20;;
26271;SDS011;13997;48.902;12.472;2023-02-17T14:21:00;5.60;;;3.50;;
26271;SDS011;13997;48.902;12.472;2023-02-17T14:26:11;5.43;;;3.55;;
26271;SDS011;13997;48.902;12.472;2023-02-17T14:28:53;6.97;;;3.35;;
26271;SDS011;13997;48.902;12.472;2023-02-17T14:31:21;8.05;;;3.90;;
26271;SDS011;13997;48.902;12.472;2023-02-17T14:33:55;8.50;;;3.70;;
26271;SDS011;13997;48.902;12.472;2023-02-17T14:36:33;8.35;;;3.67;;
26271;SDS011;13997;48.902;12.472;2023-02-17T14:39:01;7.28;;;3.42;;
26271;SDS011;13997;48.902;12.472;2023-02-17T14:41:29;7.53;;;3.92;;
26271;SDS011;13997;48.902;12.472;2023-02-17T14:43:55;10.68;;;3.95;;
26271;SDS011;13997;48.902;12.472;2023-02-17T14:46:20;9.48;;;4.75;;
26271;SDS011;13997;48.902;12.472;2023-02-17T14:48:46;13.57;;;6.38;;
26271;SDS011;13997;48.902;12.472;2023-02-17T14:51:13;12.80;;;5.03;;
26271;SDS011;13997;48.902;12.472;2023-02-17T14:53:40;14.02;;;5.60;;
26271;SDS011;13997;48.902;12.472;2023-02-17T14:56:25;21.38;;;8.23;;
26271;SDS011;13997;48.902;12.472;2023-02-17T14:58:55;8.05;;;3.88;;
26271;SDS011;13997;48.902;12.472;2023-02-17T15:01:22;6.53;;;3.17;;
26271;SDS011;13997;48.902;12.472;2023-02-17T15:03:49;7.80;;;3.70;;
26271;SDS011;13997;48.902;12.472;2023-02-17T15:08:46;5.97;;;3.60;;
26271;SDS011;13997;48.902;12.472;2023-02-17T15:11:18;6.20;;;3.72;;
26271;SDS011;13997;48.902;12.472;2023-02-17T15:14:04;7.82;;;3.80;;
26271;SDS011;13997;48.902;12.472;2023-02-17T15:16:31;10.10;;;3.97;;
26271;SDS011;13997;48.902;12.472;2023-02-17T15:18:57;5.20;;;3.58;;
26271;SDS011;13997;48.902;12.472;2023-02-17T15:21:24;12.38;;;3.67;;
26271;SDS011;13997;48.902;12.472;2023-02-17T15:23:52;8.23;;;3.58;;
26271;SDS011;13997;48.902;12.472;2023-02-17T15:26:18;5.95;;;3.17;;
26271;SDS011;13997;48.902;12.472;2023-02-17T15:28:44;4.57;;;2.85;;
26271;SDS011;13997;48.902;12.472;2023-02-17T15:31:10;5.55;;;2.85;;
26271;SDS011;13997;48.902;12.472;2023-02-17T15:33:37;7.28;;;2.50;;
26271;SDS011;13997;48.902;12.472;2023-02-17T15:36:03;6.88;;;3.05;;
26271;SDS011;13997;48.902;12.472;2023-02-17T15:38:29;8.98;;;3.25;;
26271;SDS011;13997;48.902;12.472;2023-02-17T15:40:55;5.65;;;2.72;;
26271;SDS011;13997;48.902;12.472;2023-02-17T15:43:22;7.00;;;3.00;;
26271;SDS011;13997;48.902;12.472;2023-02-17T15:45:58;6.28;;;3.20;;
26271;SDS011;13997;48.902;12.472;2023-02-17T15:48:24;7.95;;;3.38;;
26271;SDS011;13997;48.902;12.472;2023-02-17T15:50:51;7.68;;;3.83;;
26271;SDS011;13997;48.902;12.472;2023-02-17T15:53:17;6.60;;;3.10;;
26271;SDS011;13997;48.902;12.472;2023-02-17T15:55:43;7.72;;;2.90;;
26271;SDS011;13997;48.902;12.472;2023-02-17T15:58:15;6.32;;;3.50;;
26271;SDS011;13997;48.902;12.472;2023-02-17T16:00:43;9.88;;;3.47;;
26271;SDS011;13997;48.902;12.472;2023-02-17T16:03:14;6.07;;;3.42;;
26271;SDS011;13997;48.902;12.472;2023-02-17T16:05:40;8.15;;;3.22;;